sensor_id;sensor_type;location;lat;lon;timestamp;P1;durP1;ratioP1;P2;durP2;ratioP2
16669;SDS011;8448;52.034;5.158;2022-12-29T00:00:07;3.60;;;2.60;;
16669;SDS011;8448;52.034;5.158;2022-12-29T00:02:39;3.33;;;2.40;;
16669;SDS011;8448;52.034;5.158;2022-12-29T00:05:09;2.80;;;2.37;;
16669;SDS011;8448;52.034;5.158;2022-12-29T00:07:37;3.50;;;2.57;;
16669;SDS011;8448;52.034;5.158;2022-12-29T00:10:04;3.33;;;2.60;;
16669;SDS011;8448;52.034;5.158;2022-12-29T00:12:32;2.60;;;2.40;;
16669;SDS011;8448;52.034;5.158;2022-12-29T00:15:14;3.03;;;2.50;;
16669;SDS011;8448;52.034;5.158;2022-12-29T00:17:59;3.30;;;2.47;;
16669;SDS011;8448;52.034;5.158;2022-12-29T00:20:28;3.57;;;2.30;;
16669;SDS011;8448;52.034;5.158;2022-12-29T00:23:13;4.57;;;2.20;;
16669;SDS011;8448;52.034;5.158;2022-12-29T00:25:57;3.57;;;2.60;;
16669;SDS011;8448;52.034;5.158;2022-12-29T00:28:46;3.00;;;2.63;;
16669;SDS011;8448;52.034;5.158;2022-12-29T00:31:31;4.73;;;2.50;;
16669;SDS011;8448;52.034;5.158;2022-12-29T00:34:16;4.23;;;2.60;;
16669;SDS011;8448;52.034;5.158;2022-12-29T00:37:02;3.37;;;2.37;;
16669;SDS011;8448;52.034;5.158;2022-12-29T00:39:32;2.90;;;2.40;;
16669;SDS011;8448;52.034;5.158;2022-12-29T00:42:17;2.47;;;2.27;;
16669;SDS011;8448;52.034;5.158;2022-12-29T00:45:03;3.47;;;2.43;;
16669;SDS011;8448;52.034;5.158;2022-12-29T00:47:30;2.37;;;2.00;;
16669;SDS011;8448;52.034;5.158;2022-12-29T00:49:58;3.87;;;2.10;;
16669;SDS011;8448;52.034;5.158;2022-12-29T00:52:27;3.60;;;2.20;;
16669;SDS011;8448;52.034;5.158;2022-12-29T00:54:54;3.27;;;1.83;;
16669;SDS011;8448;52.034;5.158;2022-12-29T00:57:22;2.83;;;1.50;;
16669;SDS011;8448;52.034;5.158;2022-12-29T00:59:49;2.60;;;2.00;;
16669;SDS011;8448;52.034;5.158;2022-12-29T01:02:16;3.27;;;1.80;;
16669;SDS011;8448;52.034;5.158;2022-12-29T01:04:45;2.10;;;1.50;;
16669;SDS011;8448;52.034;5.158;2022-12-29T01:07:14;2.27;;;1.70;;
16669;SDS011;8448;52.034;5.158;2022-12-29T01:09:44;3.83;;;1.90;;
16669;SDS011;8448;52.034;5.158;2022-12-29T01:12:29;2.03;;;1.70;;
16669;SDS011;8448;52.034;5.158;2022-12-29T01:15:11;2.20;;;1.60;;
16669;SDS011;8448;52.034;5.158;2022-12-29T01:17:40;3.03;;;1.93;;
16669;SDS011;8448;52.034;5.158;2022-12-29T01:20:08;3.17;;;1.93;;
16669;SDS011;8448;52.034;5.158;2022-12-29T01:22:36;2.10;;;1.87;;
16669;SDS011;8448;52.034;5.158;2022-12-29T01:25:05;3.53;;;2.10;;
16669;SDS011;8448;52.034;5.158;2022-12-29T01:27:33;2.97;;;2.00;;
16669;SDS011;8448;52.034;5.158;2022-12-29T01:30:01;2.47;;;1.97;;
16669;SDS011;8448;52.034;5.158;2022-12-29T01:32:30;3.70;;;2.07;;
16669;SDS011;8448;52.034;5.158;2022-12-29T01:34:58;2.77;;;2.10;;
16669;SDS011;8448;52.034;5.158;2022-12-29T01:37:25;2.57;;;2.17;;
16669;SDS011;8448;52.034;5.158;2022-12-29T01:39:52;3.53;;;2.20;;
16669;SDS011;8448;52.034;5.158;2022-12-29T01:42:22;5.57;;;2.40;;
16669;SDS011;8448;52.034;5.158;2022-12-29T01:44:52;3.63;;;2.20;;
16669;SDS011;8448;52.034;5.158;2022-12-29T01:47:22;4.47;;;2.30;;
16669;SDS011;8448;52.034;5.158;2022-12-29T01:49:53;2.53;;;2.30;;
16669;SDS011;8448;52.034;5.158;2022-12-29T01:52:22;2.57;;;2.30;;
16669;SDS011;8448;52.034;5.158;2022-12-29T01:54:51;2.33;;;2.10;;
16669;SDS011;8448;52.034;5.158;2022-12-29T01:57:23;2.40;;;2.20;;
16669;SDS011;8448;52.034;5.158;2022-12-29T01:59:52;2.87;;;2.03;;
16669;SDS011;8448;52.034;5.158;2022-12-29T02:02:21;4.60;;;2.17;;
16669;SDS011;8448;52.034;5.158;2022-12-29T02:04:49;3.17;;;2.13;;
16669;SDS011;8448;52.034;5.158;2022-12-29T02:07:19;3.27;;;2.00;;
16669;SDS011;8448;52.034;5.158;2022-12-29T02:09:48;2.33;;;2.00;;
16669;SDS011;8448;52.034;5.158;2022-12-29T02:12:17;2.70;;;2.03;;
16669;SDS011;8448;52.034;5.158;2022-12-29T02:14:49;2.47;;;1.70;;
16669;SDS011;8448;52.034;5.158;2022-12-29T02:17:20;3.47;;;2.00;;
16669;SDS011;8448;52.034;5.158;2022-12-29T02:23:03;2.60;;;1.70;;
16669;SDS011;8448;52.034;5.158;2022-12-29T02:26:01;3.40;;;1.50;;
16669;SDS011;8448;52.034;5.158;2022-12-29T02:28:52;2.20;;;1.50;;
16669;SDS011;8448;52.034;5.158;2022-12-29T02:31:29;4.50;;;1.30;;
16669;SDS011;8448;52.034;5.158;2022-12-29T02:34:02;2.70;;;1.00;;
16669;SDS011;8448;52.034;5.158;2022-12-29T02:36:36;4.33;;;1.27;;
16669;SDS011;8448;52.034;5.158;2022-12-29T02:39:09;3.33;;;1.30;;
16669;SDS011;8448;52.034;5.158;2022-12-29T02:41:42;2.27;;;0.90;;
16669;SDS011;8448;52.034;5.158;2022-12-29T02:44:15;3.13;;;1.00;;
16669;SDS011;8448;52.034;5.158;2022-12-29T02:46:51;3.50;;;1.20;;
16669;SDS011;8448;52.034;5.158;2022-12-29T02:49:22;2.83;;;0.90;;
16669;SDS011;8448;52.034;5.158;2022-12-29T02:51:54;4.75;;;1.00;;
16669;SDS011;8448;52.034;5.158;2022-12-29T02:54:26;4.03;;;1.20;;
16669;SDS011;8448;52.034;5.158;2022-12-29T02:57:10;2.27;;;1.20;;
16669;SDS011;8448;52.034;5.158;2022-12-29T02:59:39;1.30;;;1.00;;
16669;SDS011;8448;52.034;5.158;2022-12-29T03:02:17;3.50;;;1.20;;
16669;SDS011;8448;52.034;5.158;2022-12-29T03:04:57;2.30;;;0.90;;
16669;SDS011;8448;52.034;5.158;2022-12-29T03:07:36;2.90;;;1.10;;
16669;SDS011;8448;52.034;5.158;2022-12-29T03:10:09;3.10;;;1.20;;
16669;SDS011;8448;52.034;5.158;2022-12-29T03:12:42;2.47;;;1.07;;
16669;SDS011;8448;52.034;5.158;2022-12-29T03:15:34;4.13;;;1.20;;
16669;SDS011;8448;52.034;5.158;2022-12-29T03:18:22;2.87;;;1.00;;
16669;SDS011;8448;52.034;5.158;2022-12-29T03:20:52;3.10;;;0.90;;
16669;SDS011;8448;52.034;5.158;2022-12-29T03:23:22;2.27;;;1.40;;
16669;SDS011;8448;52.034;5.158;2022-12-29T03:25:53;2.10;;;1.10;;
16669;SDS011;8448;52.034;5.158;2022-12-29T03:28:23;2.93;;;1.07;;
16669;SDS011;8448;52.034;5.158;2022-12-29T03:30:53;2.73;;;1.03;;
16669;SDS011;8448;52.034;5.158;2022-12-29T03:33:23;2.93;;;0.90;;
16669;SDS011;8448;52.034;5.158;2022-12-29T03:35:55;4.53;;;0.87;;
16669;SDS011;8448;52.034;5.158;2022-12-29T03:38:27;2.03;;;0.83;;
16669;SDS011;8448;52.034;5.158;2022-12-29T03:41:03;3.27;;;1.00;;
16669;SDS011;8448;52.034;5.158;2022-12-29T03:43:32;2.60;;;0.90;;
16669;SDS011;8448;52.034;5.158;2022-12-29T03:46:00;2.13;;;0.87;;
16669;SDS011;8448;52.034;5.158;2022-12-29T03:48:29;3.57;;;1.30;;
16669;SDS011;8448;52.034;5.158;2022-12-29T03:50:57;2.50;;;1.30;;
16669;SDS011;8448;52.034;5.158;2022-12-29T03:53:26;2.67;;;1.30;;
16669;SDS011;8448;52.034;5.158;2022-12-29T03:55:54;4.40;;;1.70;;
16669;SDS011;8448;52.034;5.158;2022-12-29T03:58:22;4.33;;;1.70;;
16669;SDS011;8448;52.034;5.158;2022-12-29T04:00:59;3.17;;;1.60;;
16669;SDS011;8448;52.034;5.158;2022-12-29T04:03:27;3.80;;;1.50;;
16669;SDS011;8448;52.034;5.158;2022-12-29T04:05:56;3.47;;;1.70;;
16669;SDS011;8448;52.034;5.158;2022-12-29T04:08:24;3.03;;;1.50;;
16669;SDS011;8448;52.034;5.158;2022-12-29T04:10:51;3.73;;;1.47;;
16669;SDS011;8448;52.034;5.158;2022-12-29T04:13:21;5.40;;;1.50;;
16669;SDS011;8448;52.034;5.158;2022-12-29T04:15:48;3.60;;;1.50;;
16669;SDS011;8448;52.034;5.158;2022-12-29T04:18:16;5.57;;;1.33;;
16669;SDS011;8448;52.034;5.158;2022-12-29T04:20:45;4.43;;;1.20;;
16669;SDS011;8448;52.034;5.158;2022-12-29T04:23:31;3.20;;;1.20;;
16669;SDS011;8448;52.034;5.158;2022-12-29T04:25:59;4.40;;;1.20;;
16669;SDS011;8448;52.034;5.158;2022-12-29T04:28:28;5.87;;;1.30;;
16669;SDS011;8448;52.034;5.158;2022-12-29T04:30:56;4.53;;;1.30;;
16669;SDS011;8448;52.034;5.158;2022-12-29T04:33:28;4.80;;;1.20;;
16669;SDS011;8448;52.034;5.158;2022-12-29T04:35:58;10.17;;;2.07;;
16669;SDS011;8448;52.034;5.158;2022-12-29T04:38:26;7.83;;;1.50;;
16669;SDS011;8448;52.034;5.158;2022-12-29T04:40:54;6.73;;;1.40;;
16669;SDS011;8448;52.034;5.158;2022-12-29T04:43:23;10.27;;;1.70;;
16669;SDS011;8448;52.034;5.158;2022-12-29T04:46:02;5.80;;;1.40;;
16669;SDS011;8448;52.034;5.158;2022-12-29T04:48:37;7.20;;;1.10;;
16669;SDS011;8448;52.034;5.158;2022-12-29T04:51:26;7.67;;;1.77;;
16669;SDS011;8448;52.034;5.158;2022-12-29T04:53:54;7.97;;;1.43;;
16669;SDS011;8448;52.034;5.158;2022-12-29T04:56:22;7.78;;;1.60;;
16669;SDS011;8448;52.034;5.158;2022-12-29T04:58:49;6.43;;;1.40;;
16669;SDS011;8448;52.034;5.158;2022-12-29T05:01:19;8.23;;;1.30;;
16669;SDS011;8448;52.034;5.158;2022-12-29T05:03:46;5.73;;;1.53;;
16669;SDS011;8448;52.034;5.158;2022-12-29T05:06:16;8.30;;;2.00;;
16669;SDS011;8448;52.034;5.158;2022-12-29T05:08:44;6.67;;;1.73;;
16669;SDS011;8448;52.034;5.158;2022-12-29T05:11:12;8.07;;;1.87;;
16669;SDS011;8448;52.034;5.158;2022-12-29T05:13:40;11.03;;;1.70;;
16669;SDS011;8448;52.034;5.158;2022-12-29T05:16:10;8.70;;;1.73;;
16669;SDS011;8448;52.034;5.158;2022-12-29T05:18:38;8.47;;;1.53;;
16669;SDS011;8448;52.034;5.158;2022-12-29T05:21:07;7.83;;;1.60;;
16669;SDS011;8448;52.034;5.158;2022-12-29T05:23:34;8.07;;;1.43;;
16669;SDS011;8448;52.034;5.158;2022-12-29T05:26:06;7.30;;;2.03;;
16669;SDS011;8448;52.034;5.158;2022-12-29T05:28:52;7.03;;;1.50;;
16669;SDS011;8448;52.034;5.158;2022-12-29T05:31:21;8.60;;;1.90;;
16669;SDS011;8448;52.034;5.158;2022-12-29T05:33:48;5.63;;;1.40;;
16669;SDS011;8448;52.034;5.158;2022-12-29T05:36:16;11.03;;;1.90;;
16669;SDS011;8448;52.034;5.158;2022-12-29T05:38:51;9.77;;;1.87;;
16669;SDS011;8448;52.034;5.158;2022-12-29T05:41:20;8.17;;;1.60;;
16669;SDS011;8448;52.034;5.158;2022-12-29T05:44:19;7.57;;;1.80;;
16669;SDS011;8448;52.034;5.158;2022-12-29T05:47:13;6.60;;;1.33;;
16669;SDS011;8448;52.034;5.158;2022-12-29T05:49:50;7.33;;;1.60;;
16669;SDS011;8448;52.034;5.158;2022-12-29T05:52:47;8.50;;;1.70;;
16669;SDS011;8448;52.034;5.158;2022-12-29T05:55:16;10.27;;;1.50;;
16669;SDS011;8448;52.034;5.158;2022-12-29T05:57:46;10.10;;;2.10;;
16669;SDS011;8448;52.034;5.158;2022-12-29T06:00:15;6.70;;;1.40;;
16669;SDS011;8448;52.034;5.158;2022-12-29T06:02:45;7.27;;;1.70;;
16669;SDS011;8448;52.034;5.158;2022-12-29T06:05:14;11.57;;;2.10;;
16669;SDS011;8448;52.034;5.158;2022-12-29T06:07:42;8.83;;;1.97;;
16669;SDS011;8448;52.034;5.158;2022-12-29T06:10:11;9.13;;;1.93;;
16669;SDS011;8448;52.034;5.158;2022-12-29T06:12:43;7.30;;;1.67;;
16669;SDS011;8448;52.034;5.158;2022-12-29T06:15:12;7.97;;;1.70;;
16669;SDS011;8448;52.034;5.158;2022-12-29T06:17:41;11.47;;;1.60;;
16669;SDS011;8448;52.034;5.158;2022-12-29T06:20:09;7.83;;;1.90;;
16669;SDS011;8448;52.034;5.158;2022-12-29T06:22:37;10.17;;;2.00;;
16669;SDS011;8448;52.034;5.158;2022-12-29T06:25:04;10.77;;;1.70;;
16669;SDS011;8448;52.034;5.158;2022-12-29T06:27:33;10.40;;;1.70;;
16669;SDS011;8448;52.034;5.158;2022-12-29T06:30:01;7.00;;;1.80;;
16669;SDS011;8448;52.034;5.158;2022-12-29T06:32:30;10.97;;;1.87;;
16669;SDS011;8448;52.034;5.158;2022-12-29T06:35:04;11.83;;;2.07;;
16669;SDS011;8448;52.034;5.158;2022-12-29T06:37:35;9.27;;;1.70;;
16669;SDS011;8448;52.034;5.158;2022-12-29T06:40:03;8.53;;;1.80;;
16669;SDS011;8448;52.034;5.158;2022-12-29T06:42:44;7.90;;;1.70;;
16669;SDS011;8448;52.034;5.158;2022-12-29T06:45:32;10.90;;;1.83;;
16669;SDS011;8448;52.034;5.158;2022-12-29T06:48:01;10.43;;;1.57;;
16669;SDS011;8448;52.034;5.158;2022-12-29T06:50:28;8.17;;;1.60;;
16669;SDS011;8448;52.034;5.158;2022-12-29T06:52:56;8.53;;;1.70;;
16669;SDS011;8448;52.034;5.158;2022-12-29T06:55:23;9.50;;;1.70;;
16669;SDS011;8448;52.034;5.158;2022-12-29T06:57:54;10.93;;;1.93;;
16669;SDS011;8448;52.034;5.158;2022-12-29T07:00:21;8.50;;;1.75;;
16669;SDS011;8448;52.034;5.158;2022-12-29T07:02:49;9.63;;;2.33;;
16669;SDS011;8448;52.034;5.158;2022-12-29T07:05:17;8.47;;;1.73;;
16669;SDS011;8448;52.034;5.158;2022-12-29T07:07:45;10.20;;;1.70;;
16669;SDS011;8448;52.034;5.158;2022-12-29T07:10:12;9.07;;;2.20;;
16669;SDS011;8448;52.034;5.158;2022-12-29T07:12:40;9.57;;;1.87;;
16669;SDS011;8448;52.034;5.158;2022-12-29T07:15:07;9.90;;;1.43;;
16669;SDS011;8448;52.034;5.158;2022-12-29T07:17:36;8.97;;;1.90;;
16669;SDS011;8448;52.034;5.158;2022-12-29T07:20:04;8.77;;;1.87;;
16669;SDS011;8448;52.034;5.158;2022-12-29T07:22:33;9.40;;;1.70;;
16669;SDS011;8448;52.034;5.158;2022-12-29T07:25:01;8.50;;;1.73;;
16669;SDS011;8448;52.034;5.158;2022-12-29T07:27:28;7.50;;;1.80;;
16669;SDS011;8448;52.034;5.158;2022-12-29T07:29:56;8.60;;;2.17;;
16669;SDS011;8448;52.034;5.158;2022-12-29T07:32:23;6.63;;;1.90;;
16669;SDS011;8448;52.034;5.158;2022-12-29T07:34:51;11.97;;;2.33;;
16669;SDS011;8448;52.034;5.158;2022-12-29T07:37:18;9.67;;;2.30;;
16669;SDS011;8448;52.034;5.158;2022-12-29T07:39:47;8.53;;;2.30;;
16669;SDS011;8448;52.034;5.158;2022-12-29T07:42:14;13.80;;;2.43;;
16669;SDS011;8448;52.034;5.158;2022-12-29T07:44:47;10.77;;;2.57;;
16669;SDS011;8448;52.034;5.158;2022-12-29T07:47:17;10.50;;;2.20;;
16669;SDS011;8448;52.034;5.158;2022-12-29T07:49:44;11.33;;;2.37;;
16669;SDS011;8448;52.034;5.158;2022-12-29T07:52:12;8.77;;;2.17;;
16669;SDS011;8448;52.034;5.158;2022-12-29T07:54:39;8.87;;;2.07;;
16669;SDS011;8448;52.034;5.158;2022-12-29T07:57:08;9.60;;;2.07;;
16669;SDS011;8448;52.034;5.158;2022-12-29T07:59:36;9.83;;;2.47;;
16669;SDS011;8448;52.034;5.158;2022-12-29T08:02:03;7.90;;;1.97;;
16669;SDS011;8448;52.034;5.158;2022-12-29T08:04:30;7.43;;;1.60;;
16669;SDS011;8448;52.034;5.158;2022-12-29T08:06:58;7.27;;;1.83;;
16669;SDS011;8448;52.034;5.158;2022-12-29T08:09:25;8.20;;;1.97;;
16669;SDS011;8448;52.034;5.158;2022-12-29T08:11:53;12.40;;;2.60;;
16669;SDS011;8448;52.034;5.158;2022-12-29T08:14:22;10.03;;;2.13;;
16669;SDS011;8448;52.034;5.158;2022-12-29T08:16:49;12.47;;;2.17;;
16669;SDS011;8448;52.034;5.158;2022-12-29T08:19:17;11.23;;;1.93;;
16669;SDS011;8448;52.034;5.158;2022-12-29T08:21:44;8.53;;;2.40;;
16669;SDS011;8448;52.034;5.158;2022-12-29T08:24:11;10.10;;;2.27;;
16669;SDS011;8448;52.034;5.158;2022-12-29T08:26:39;11.23;;;1.97;;
16669;SDS011;8448;52.034;5.158;2022-12-29T08:29:06;13.10;;;2.73;;
16669;SDS011;8448;52.034;5.158;2022-12-29T08:31:35;8.37;;;2.00;;
16669;SDS011;8448;52.034;5.158;2022-12-29T08:34:02;6.97;;;1.80;;
16669;SDS011;8448;52.034;5.158;2022-12-29T08:36:30;9.07;;;1.73;;
16669;SDS011;8448;52.034;5.158;2022-12-29T08:38:58;7.87;;;1.73;;
16669;SDS011;8448;52.034;5.158;2022-12-29T08:41:25;9.50;;;2.10;;
16669;SDS011;8448;52.034;5.158;2022-12-29T08:43:53;12.57;;;2.10;;
16669;SDS011;8448;52.034;5.158;2022-12-29T08:46:20;10.83;;;2.30;;
16669;SDS011;8448;52.034;5.158;2022-12-29T08:48:49;11.07;;;2.20;;
16669;SDS011;8448;52.034;5.158;2022-12-29T08:51:16;8.13;;;1.93;;
16669;SDS011;8448;52.034;5.158;2022-12-29T08:53:43;15.83;;;2.30;;
16669;SDS011;8448;52.034;5.158;2022-12-29T08:56:11;10.87;;;2.30;;
16669;SDS011;8448;52.034;5.158;2022-12-29T08:58:47;8.83;;;1.90;;
16669;SDS011;8448;52.034;5.158;2022-12-29T09:01:16;11.40;;;2.40;;
16669;SDS011;8448;52.034;5.158;2022-12-29T09:03:44;11.00;;;2.07;;
16669;SDS011;8448;52.034;5.158;2022-12-29T09:06:13;11.77;;;2.43;;
16669;SDS011;8448;52.034;5.158;2022-12-29T09:08:41;9.93;;;2.40;;
16669;SDS011;8448;52.034;5.158;2022-12-29T09:11:10;15.93;;;2.73;;
16669;SDS011;8448;52.034;5.158;2022-12-29T09:13:38;10.23;;;2.23;;
16669;SDS011;8448;52.034;5.158;2022-12-29T09:16:06;8.87;;;1.63;;
16669;SDS011;8448;52.034;5.158;2022-12-29T09:18:33;7.07;;;1.87;;
16669;SDS011;8448;52.034;5.158;2022-12-29T09:21:02;9.63;;;2.00;;
16669;SDS011;8448;52.034;5.158;2022-12-29T09:23:31;7.17;;;2.07;;
16669;SDS011;8448;52.034;5.158;2022-12-29T09:25:59;6.50;;;1.63;;
16669;SDS011;8448;52.034;5.158;2022-12-29T09:28:27;13.03;;;2.10;;
16669;SDS011;8448;52.034;5.158;2022-12-29T09:30:55;10.90;;;2.13;;
16669;SDS011;8448;52.034;5.158;2022-12-29T09:33:23;11.37;;;2.60;;
16669;SDS011;8448;52.034;5.158;2022-12-29T09:35:51;8.43;;;2.17;;
16669;SDS011;8448;52.034;5.158;2022-12-29T09:38:19;10.53;;;2.03;;
16669;SDS011;8448;52.034;5.158;2022-12-29T09:40:50;11.87;;;2.17;;
16669;SDS011;8448;52.034;5.158;2022-12-29T09:43:27;10.60;;;2.37;;
16669;SDS011;8448;52.034;5.158;2022-12-29T09:46:14;8.60;;;2.10;;
16669;SDS011;8448;52.034;5.158;2022-12-29T09:48:46;5.03;;;2.00;;
16669;SDS011;8448;52.034;5.158;2022-12-29T09:51:18;6.97;;;2.00;;
16669;SDS011;8448;52.034;5.158;2022-12-29T09:53:49;10.97;;;2.57;;
16669;SDS011;8448;52.034;5.158;2022-12-29T09:56:21;14.43;;;2.70;;
16669;SDS011;8448;52.034;5.158;2022-12-29T09:58:52;10.40;;;2.17;;
16669;SDS011;8448;52.034;5.158;2022-12-29T10:01:26;8.63;;;2.10;;
16669;SDS011;8448;52.034;5.158;2022-12-29T10:03:56;8.23;;;1.80;;
16669;SDS011;8448;52.034;5.158;2022-12-29T10:06:24;7.67;;;1.80;;
16669;SDS011;8448;52.034;5.158;2022-12-29T10:08:57;7.60;;;2.00;;
16669;SDS011;8448;52.034;5.158;2022-12-29T10:11:33;6.57;;;1.87;;
16669;SDS011;8448;52.034;5.158;2022-12-29T10:14:13;10.57;;;1.93;;
16669;SDS011;8448;52.034;5.158;2022-12-29T10:16:50;7.53;;;1.73;;
16669;SDS011;8448;52.034;5.158;2022-12-29T10:19:34;7.03;;;2.00;;
16669;SDS011;8448;52.034;5.158;2022-12-29T10:22:09;6.23;;;1.80;;
16669;SDS011;8448;52.034;5.158;2022-12-29T10:24:43;4.83;;;1.50;;
16669;SDS011;8448;52.034;5.158;2022-12-29T10:27:13;5.80;;;1.83;;
16669;SDS011;8448;52.034;5.158;2022-12-29T10:29:43;8.70;;;2.00;;
16669;SDS011;8448;52.034;5.158;2022-12-29T10:32:21;8.53;;;2.27;;
16669;SDS011;8448;52.034;5.158;2022-12-29T10:34:54;10.17;;;2.33;;
16669;SDS011;8448;52.034;5.158;2022-12-29T10:37:40;12.37;;;2.57;;
16669;SDS011;8448;52.034;5.158;2022-12-29T10:40:14;12.90;;;2.90;;
16669;SDS011;8448;52.034;5.158;2022-12-29T10:42:47;13.07;;;2.93;;
16669;SDS011;8448;52.034;5.158;2022-12-29T10:45:18;12.00;;;2.50;;
16669;SDS011;8448;52.034;5.158;2022-12-29T10:47:51;11.73;;;3.20;;
16669;SDS011;8448;52.034;5.158;2022-12-29T10:50:20;10.37;;;3.17;;
16669;SDS011;8448;52.034;5.158;2022-12-29T10:52:48;17.73;;;3.40;;
16669;SDS011;8448;52.034;5.158;2022-12-29T10:55:17;16.20;;;3.73;;
16669;SDS011;8448;52.034;5.158;2022-12-29T10:57:49;16.33;;;3.23;;
16669;SDS011;8448;52.034;5.158;2022-12-29T11:00:17;12.47;;;3.37;;
16669;SDS011;8448;52.034;5.158;2022-12-29T11:02:49;14.43;;;2.93;;
16669;SDS011;8448;52.034;5.158;2022-12-29T11:05:27;15.53;;;3.70;;
16669;SDS011;8448;52.034;5.158;2022-12-29T11:07:59;11.97;;;3.00;;
16669;SDS011;8448;52.034;5.158;2022-12-29T11:10:30;12.67;;;3.17;;
16669;SDS011;8448;52.034;5.158;2022-12-29T11:13:04;13.03;;;3.30;;
16669;SDS011;8448;52.034;5.158;2022-12-29T11:15:38;13.70;;;3.27;;
16669;SDS011;8448;52.034;5.158;2022-12-29T11:18:16;14.13;;;3.40;;
16669;SDS011;8448;52.034;5.158;2022-12-29T11:20:45;18.33;;;3.30;;
16669;SDS011;8448;52.034;5.158;2022-12-29T11:23:21;17.83;;;3.90;;
16669;SDS011;8448;52.034;5.158;2022-12-29T11:29:03;16.30;;;3.50;;
16669;SDS011;8448;52.034;5.158;2022-12-29T11:31:39;13.17;;;3.00;;
16669;SDS011;8448;52.034;5.158;2022-12-29T11:34:07;14.37;;;3.00;;
16669;SDS011;8448;52.034;5.158;2022-12-29T11:36:34;12.23;;;2.63;;
16669;SDS011;8448;52.034;5.158;2022-12-29T11:39:03;12.43;;;2.97;;
16669;SDS011;8448;52.034;5.158;2022-12-29T11:41:31;16.07;;;3.63;;
16669;SDS011;8448;52.034;5.158;2022-12-29T11:43:59;12.90;;;3.27;;
16669;SDS011;8448;52.034;5.158;2022-12-29T11:46:31;14.37;;;3.23;;
16669;SDS011;8448;52.034;5.158;2022-12-29T11:49:00;15.67;;;3.60;;
16669;SDS011;8448;52.034;5.158;2022-12-29T11:51:30;14.00;;;3.17;;
16669;SDS011;8448;52.034;5.158;2022-12-29T11:54:00;13.67;;;3.67;;
16669;SDS011;8448;52.034;5.158;2022-12-29T11:56:33;15.97;;;3.87;;
16669;SDS011;8448;52.034;5.158;2022-12-29T12:02:11;15.37;;;3.47;;
16669;SDS011;8448;52.034;5.158;2022-12-29T12:04:55;11.30;;;3.60;;
16669;SDS011;8448;52.034;5.158;2022-12-29T12:07:29;14.90;;;4.03;;
16669;SDS011;8448;52.034;5.158;2022-12-29T12:10:04;21.53;;;4.17;;
16669;SDS011;8448;52.034;5.158;2022-12-29T12:12:34;16.97;;;3.63;;
16669;SDS011;8448;52.034;5.158;2022-12-29T12:15:08;12.23;;;3.20;;
16669;SDS011;8448;52.034;5.158;2022-12-29T12:17:50;12.70;;;3.20;;
16669;SDS011;8448;52.034;5.158;2022-12-29T12:20:21;17.00;;;3.40;;
16669;SDS011;8448;52.034;5.158;2022-12-29T12:22:51;14.67;;;3.00;;
16669;SDS011;8448;52.034;5.158;2022-12-29T12:25:25;11.27;;;3.10;;
16669;SDS011;8448;52.034;5.158;2022-12-29T12:27:56;13.53;;;3.27;;
16669;SDS011;8448;52.034;5.158;2022-12-29T12:30:28;16.27;;;4.20;;
16669;SDS011;8448;52.034;5.158;2022-12-29T12:33:00;12.53;;;3.03;;
16669;SDS011;8448;52.034;5.158;2022-12-29T12:35:32;19.43;;;3.80;;
16669;SDS011;8448;52.034;5.158;2022-12-29T12:38:06;13.73;;;3.23;;
16669;SDS011;8448;52.034;5.158;2022-12-29T12:43:39;13.60;;;3.50;;
16669;SDS011;8448;52.034;5.158;2022-12-29T12:46:14;16.30;;;3.30;;
16669;SDS011;8448;52.034;5.158;2022-12-29T12:48:53;11.90;;;3.30;;
16669;SDS011;8448;52.034;5.158;2022-12-29T12:51:32;13.13;;;3.47;;
16669;SDS011;8448;52.034;5.158;2022-12-29T12:54:06;11.70;;;2.77;;
16669;SDS011;8448;52.034;5.158;2022-12-29T12:56:46;11.83;;;3.77;;
16669;SDS011;8448;52.034;5.158;2022-12-29T12:59:23;11.77;;;3.33;;
16669;SDS011;8448;52.034;5.158;2022-12-29T13:02:02;14.03;;;3.17;;
16669;SDS011;8448;52.034;5.158;2022-12-29T13:04:48;13.57;;;3.13;;
16669;SDS011;8448;52.034;5.158;2022-12-29T13:07:26;12.77;;;3.40;;
16669;SDS011;8448;52.034;5.158;2022-12-29T13:10:01;11.00;;;3.40;;
16669;SDS011;8448;52.034;5.158;2022-12-29T13:12:44;12.70;;;3.10;;
16669;SDS011;8448;52.034;5.158;2022-12-29T13:15:18;13.77;;;3.97;;
16669;SDS011;8448;52.034;5.158;2022-12-29T13:17:54;12.87;;;3.50;;
16669;SDS011;8448;52.034;5.158;2022-12-29T13:20:27;15.37;;;3.67;;
16669;SDS011;8448;52.034;5.158;2022-12-29T13:23:01;12.57;;;3.33;;
16669;SDS011;8448;52.034;5.158;2022-12-29T13:25:33;16.53;;;4.13;;
16669;SDS011;8448;52.034;5.158;2022-12-29T13:28:05;16.23;;;3.87;;
16669;SDS011;8448;52.034;5.158;2022-12-29T13:30:37;13.47;;;3.63;;
16669;SDS011;8448;52.034;5.158;2022-12-29T13:33:13;18.83;;;4.10;;
16669;SDS011;8448;52.034;5.158;2022-12-29T13:35:47;16.30;;;3.80;;
16669;SDS011;8448;52.034;5.158;2022-12-29T13:38:22;14.03;;;3.57;;
16669;SDS011;8448;52.034;5.158;2022-12-29T13:40:53;10.90;;;3.23;;
16669;SDS011;8448;52.034;5.158;2022-12-29T13:43:22;14.70;;;3.20;;
16669;SDS011;8448;52.034;5.158;2022-12-29T13:45:56;13.73;;;3.17;;
16669;SDS011;8448;52.034;5.158;2022-12-29T13:48:29;12.73;;;2.70;;
16669;SDS011;8448;52.034;5.158;2022-12-29T13:51:03;12.17;;;2.70;;
16669;SDS011;8448;52.034;5.158;2022-12-29T13:53:34;10.90;;;2.20;;
16669;SDS011;8448;52.034;5.158;2022-12-29T13:56:07;7.70;;;2.10;;
16669;SDS011;8448;52.034;5.158;2022-12-29T13:58:37;8.87;;;2.30;;
16669;SDS011;8448;52.034;5.158;2022-12-29T14:01:12;7.80;;;1.87;;
16669;SDS011;8448;52.034;5.158;2022-12-29T14:03:48;6.73;;;1.47;;
16669;SDS011;8448;52.034;5.158;2022-12-29T14:06:19;5.17;;;1.60;;
16669;SDS011;8448;52.034;5.158;2022-12-29T14:08:49;3.23;;;1.30;;
16669;SDS011;8448;52.034;5.158;2022-12-29T14:11:20;6.23;;;1.50;;
16669;SDS011;8448;52.034;5.158;2022-12-29T14:13:50;5.97;;;1.37;;
16669;SDS011;8448;52.034;5.158;2022-12-29T14:16:32;4.40;;;1.10;;
16669;SDS011;8448;52.034;5.158;2022-12-29T14:19:05;6.33;;;1.20;;
16669;SDS011;8448;52.034;5.158;2022-12-29T14:21:37;5.43;;;1.13;;
16669;SDS011;8448;52.034;5.158;2022-12-29T14:26:54;5.13;;;1.30;;
16669;SDS011;8448;52.034;5.158;2022-12-29T14:38:18;6.00;;;1.90;;
16669;SDS011;8448;52.034;5.158;2022-12-29T14:43:51;8.67;;;2.30;;
16669;SDS011;8448;52.034;5.158;2022-12-29T14:46:40;6.07;;;1.87;;
16669;SDS011;8448;52.034;5.158;2022-12-29T14:49:08;10.03;;;2.17;;
16669;SDS011;8448;52.034;5.158;2022-12-29T14:51:43;7.70;;;2.40;;
16669;SDS011;8448;52.034;5.158;2022-12-29T14:57:07;8.47;;;2.30;;
16669;SDS011;8448;52.034;5.158;2022-12-29T14:59:39;14.37;;;2.47;;
16669;SDS011;8448;52.034;5.158;2022-12-29T15:02:12;11.17;;;2.73;;
16669;SDS011;8448;52.034;5.158;2022-12-29T15:04:42;13.40;;;2.70;;
16669;SDS011;8448;52.034;5.158;2022-12-29T15:07:12;10.77;;;2.73;;
16669;SDS011;8448;52.034;5.158;2022-12-29T15:09:41;16.17;;;2.77;;
16669;SDS011;8448;52.034;5.158;2022-12-29T15:12:22;9.23;;;2.53;;
16669;SDS011;8448;52.034;5.158;2022-12-29T15:14:57;9.77;;;2.30;;
16669;SDS011;8448;52.034;5.158;2022-12-29T15:17:25;9.13;;;2.63;;
16669;SDS011;8448;52.034;5.158;2022-12-29T15:19:54;12.10;;;2.43;;
16669;SDS011;8448;52.034;5.158;2022-12-29T15:22:24;9.37;;;2.20;;
16669;SDS011;8448;52.034;5.158;2022-12-29T15:24:52;10.97;;;4.30;;
16669;SDS011;8448;52.034;5.158;2022-12-29T15:27:22;11.40;;;3.60;;
16669;SDS011;8448;52.034;5.158;2022-12-29T15:29:55;29.97;;;15.60;;
16669;SDS011;8448;52.034;5.158;2022-12-29T15:32:24;19.03;;;11.47;;
16669;SDS011;8448;52.034;5.158;2022-12-29T15:34:53;8.65;;;2.67;;
16669;SDS011;8448;52.034;5.158;2022-12-29T15:37:22;8.70;;;2.50;;
16669;SDS011;8448;52.034;5.158;2022-12-29T15:39:52;11.57;;;2.83;;
16669;SDS011;8448;52.034;5.158;2022-12-29T15:42:27;8.37;;;2.70;;
16669;SDS011;8448;52.034;5.158;2022-12-29T15:45:11;10.30;;;3.13;;
16669;SDS011;8448;52.034;5.158;2022-12-29T15:47:40;9.40;;;2.80;;
16669;SDS011;8448;52.034;5.158;2022-12-29T15:50:13;7.30;;;2.20;;
16669;SDS011;8448;52.034;5.158;2022-12-29T15:52:46;11.07;;;2.70;;